Time;durP1;ratioP1;P1;durP2;ratioP2;P2;SDS_P1;SDS_P2;PMS_P1;PMS_P2;Temp;Humidity;BMP_temperature;BMP_pressure;BME280_temperature;BME280_humidity;BME280_pressure;Samples;Min_cycle;Max_cycle;Signal;HPM_P1;HPM_P2
2023/08/06 00:01:31;;;;;;;13.60;9.45;;;14.90;99.90;;;;;;5047846;28;20040;-69
2023/08/06 00:03:56;;;;;;;13.15;9.02;;;14.80;99.90;;;;;;5062780;28;20043;-70
2023/08/06 00:06:22;;;;;;;12.70;8.93;;;14.90;99.90;;;;;;5062922;28;20033;-70
2023/08/06 00:08:48;;;;;;;15.40;9.10;;;14.90;99.90;;;;;;5036908;28;20045;-70
2023/08/06 00:11:13;;;;;;;13.18;8.85;;;14.90;99.90;;;;;;5057305;28;20032;-70
2023/08/06 00:13:39;;;;;;;12.48;8.80;;;14.90;99.90;;;;;;5038333;28;20066;-70
2023/08/06 00:16:12;;;;;;;10.77;8.93;;;14.90;99.90;;;;;;5051680;28;20139;-70
2023/08/06 00:18:38;;;;;;;13.43;9.18;;;14.90;99.90;;;;;;5057328;28;20073;-71
2023/08/06 00:21:03;;;;;;;12.73;8.88;;;14.80;99.90;;;;;;5044068;28;20156;-70
2023/08/06 00:23:29;;;;;;;15.10;9.60;;;14.90;99.90;;;;;;5048156;28;20127;-70
2023/08/06 00:25:54;;;;;;;13.43;9.20;;;14.80;99.90;;;;;;5050871;28;20036;-70
2023/08/06 00:28:20;;;;;;;13.27;9.75;;;14.90;99.90;;;;;;5070902;28;20037;-70
2023/08/06 00:30:45;;;;;;;16.80;9.55;;;14.90;99.90;;;;;;5044900;28;20478;-71
2023/08/06 00:33:11;;;;;;;14.27;9.65;;;14.80;99.90;;;;;;5044655;28;20039;-72
2023/08/06 00:35:37;;;;;;;14.52;9.32;;;14.80;99.90;;;;;;5062470;28;20110;-70
2023/08/06 00:38:02;;;;;;;15.35;9.85;;;14.80;99.90;;;;;;5062617;28;20048;-71
2023/08/06 00:40:31;;;;;;;15.52;10.60;;;14.80;99.90;;;;;;5044189;28;20036;-70
2023/08/06 00:42:56;;;;;;;12.43;9.73;;;14.80;99.90;;;;;;5057819;28;20029;-70
2023/08/06 00:45:22;;;;;;;18.00;10.25;;;14.80;99.90;;;;;;5043484;28;20048;-71
2023/08/06 00:47:48;;;;;;;12.57;9.85;;;14.80;99.90;;;;;;5030011;28;20060;-70
2023/08/06 00:50:14;;;;;;;14.45;9.68;;;14.80;99.90;;;;;;5044556;28;20044;-70
2023/08/06 00:52:40;;;;;;;12.75;9.63;;;14.80;99.90;;;;;;5061854;28;20053;-70
2023/08/06 00:55:06;;;;;;;15.18;10.05;;;14.70;99.90;;;;;;5062086;28;20505;-70
2023/08/06 00:57:32;;;;;;;13.93;8.95;;;14.70;99.90;;;;;;5043525;28;20115;-70
2023/08/06 00:59:58;;;;;;;12.25;9.18;;;14.70;99.90;;;;;;5058481;28;20071;-70
2023/08/06 01:02:23;;;;;;;13.35;9.23;;;14.60;99.90;;;;;;5067702;28;20402;-70
2023/08/06 01:04:49;;;;;;;14.13;9.00;;;14.60;99.90;;;;;;5044759;28;20041;-70
2023/08/06 01:07:30;;;;;;;12.23;8.98;;;14.50;99.90;;;;;;5061315;28;20047;-71
2023/08/06 01:10:14;;;;;;;13.52;8.82;;;14.50;99.90;;;;;;5059292;28;20043;-70
2023/08/06 01:13:00;;;;;;;13.95;9.00;;;14.50;99.90;;;;;;5046575;28;20056;-69
2023/08/06 01:15:32;;;;;;;13.35;9.43;;;14.50;99.90;;;;;;5059563;28;20036;-69
2023/08/06 01:17:59;;;;;;;11.93;8.82;;;14.40;99.90;;;;;;5062701;28;20506;-70
2023/08/06 01:20:29;;;;;;;14.25;9.50;;;14.40;99.90;;;;;;5039123;28;20040;-70
2023/08/06 01:22:55;;;;;;;13.90;9.30;;;14.40;99.90;;;;;;5061190;28;20040;-70
2023/08/06 01:25:21;;;;;;;14.43;9.52;;;14.40;99.90;;;;;;5049698;28;20436;-68
2023/08/06 01:27:51;;;;;;;12.20;9.00;;;14.30;99.90;;;;;;5037345;28;20128;-71
2023/08/06 01:30:25;;;;;;;13.77;9.32;;;14.30;99.90;;;;;;5070591;28;20103;-70
2023/08/06 01:32:57;;;;;;;12.65;9.27;;;14.30;99.90;;;;;;5048578;28;20049;-70
2023/08/06 01:35:23;;;;;;;12.98;9.52;;;14.20;99.90;;;;;;5029989;28;20037;-69
2023/08/06 01:37:49;;;;;;;14.50;9.27;;;14.20;99.90;;;;;;5044635;28;20042;-70
2023/08/06 01:40:15;;;;;;;14.15;9.35;;;14.20;99.90;;;;;;5057619;28;20086;-70
2023/08/06 01:42:41;;;;;;;12.55;8.88;;;14.20;99.90;;;;;;5052348;28;20041;-70
2023/08/06 01:45:07;;;;;;;13.95;9.35;;;14.20;99.90;;;;;;5064612;28;20036;-69
2023/08/06 01:47:33;;;;;;;11.90;9.27;;;14.20;99.90;;;;;;5063409;28;20080;-70
2023/08/06 01:49:59;;;;;;;13.18;9.35;;;14.20;99.90;;;;;;5066157;28;20155;-70
2023/08/06 01:52:24;;;;;;;13.32;9.82;;;14.30;99.90;;;;;;5037227;28;20771;-71
2023/08/06 01:54:50;;;;;;;12.65;9.63;;;14.30;99.90;;;;;;5050531;28;20131;-69
2023/08/06 01:57:15;;;;;;;17.10;10.52;;;14.40;99.90;;;;;;5065248;28;20083;-71
2023/08/06 01:59:41;;;;;;;16.67;9.73;;;14.40;99.90;;;;;;5037899;28;20068;-71
2023/08/06 02:02:07;;;;;;;14.63;9.80;;;14.40;99.90;;;;;;5058999;28;20029;-71
2023/08/06 02:04:32;;;;;;;12.88;9.73;;;14.40;99.90;;;;;;5064143;28;20130;-71
2023/08/06 02:06:58;;;;;;;15.35;9.95;;;14.40;99.90;;;;;;5051438;28;20509;-70
2023/08/06 02:09:23;;;;;;;14.65;9.65;;;14.40;99.90;;;;;;5048465;28;20033;-69
2023/08/06 02:11:49;;;;;;;13.77;10.00;;;14.50;99.90;;;;;;5064104;28;20483;-70
2023/08/06 02:14:15;;;;;;;13.15;9.38;;;14.50;99.90;;;;;;5059847;28;20040;-70
2023/08/06 02:16:40;;;;;;;13.15;8.90;;;14.50;99.90;;;;;;5035090;28;20136;-70
2023/08/06 02:19:06;;;;;;;12.65;9.05;;;14.50;99.90;;;;;;5052629;28;20513;-70
2023/08/06 02:21:31;;;;;;;14.18;9.85;;;14.50;99.90;;;;;;5063275;28;20185;-72
2023/08/06 02:23:57;;;;;;;14.52;9.60;;;14.50;99.90;;;;;;5050931;28;20426;-70
2023/08/06 02:26:23;;;;;;;15.40;9.23;;;14.50;99.90;;;;;;5044378;28;20036;-69
2023/08/06 02:28:48;;;;;;;11.95;9.20;;;14.50;99.90;;;;;;5063401;28;20044;-70
2023/08/06 02:31:14;;;;;;;12.48;8.93;;;14.60;99.90;;;;;;5065813;28;20033;-71
2023/08/06 02:33:39;;;;;;;13.88;9.75;;;14.50;99.90;;;;;;5051959;28;20106;-71
2023/08/06 02:36:05;;;;;;;14.80;8.88;;;14.50;99.90;;;;;;5065007;28;20042;-70
2023/08/06 02:38:31;;;;;;;13.45;9.38;;;14.50;99.90;;;;;;5062443;28;20048;-71
2023/08/06 02:40:57;;;;;;;12.50;8.88;;;14.40;99.90;;;;;;5061243;28;20166;-71
2023/08/06 02:43:23;;;;;;;15.05;10.18;;;14.40;99.90;;;;;;5042926;28;20037;-71
2023/08/06 02:45:49;;;;;;;13.38;9.38;;;14.40;99.90;;;;;;5061308;28;20052;-70
2023/08/06 02:48:14;;;;;;;15.73;10.02;;;14.30;99.90;;;;;;5061149;28;20040;-70
2023/08/06 02:50:41;;;;;;;13.32;10.15;;;14.30;99.90;;;;;;5035823;28;20140;-70
2023/08/06 02:53:07;;;;;;;13.30;9.80;;;14.30;99.90;;;;;;5064303;28;20040;-70
2023/08/06 02:55:34;;;;;;;13.05;9.93;;;14.30;99.90;;;;;;5059375;28;20036;-70
2023/08/06 02:58:00;;;;;;;13.80;9.68;;;14.30;99.90;;;;;;5030323;28;20120;-70
2023/08/06 03:00:26;;;;;;;15.10;10.73;;;14.30;99.90;;;;;;5045373;28;20044;-70
2023/08/06 03:02:52;;;;;;;13.20;9.98;;;14.30;99.90;;;;;;5068779;28;20048;-69
2023/08/06 03:05:18;;;;;;;15.50;10.43;;;14.30;99.90;;;;;;5054351;28;20053;-69
2023/08/06 03:07:43;;;;;;;14.38;10.43;;;14.30;99.90;;;;;;5035267;28;20052;-70
2023/08/06 03:10:09;;;;;;;18.13;10.35;;;14.30;99.90;;;;;;5063581;28;20028;-72
2023/08/06 03:12:35;;;;;;;16.60;10.40;;;14.20;99.90;;;;;;5031239;28;20072;-69
2023/08/06 03:15:00;;;;;;;14.88;10.75;;;14.20;99.90;;;;;;5028441;28;20036;-67
2023/08/06 03:17:26;;;;;;;14.63;10.93;;;14.10;99.90;;;;;;5040831;28;20047;-69
2023/08/06 03:19:51;;;;;;;15.45;9.77;;;14.20;99.90;;;;;;5062177;28;20410;-68
2023/08/06 03:22:17;;;;;;;16.80;10.10;;;14.10;99.90;;;;;;5032664;28;20142;-69
2023/08/06 03:24:43;;;;;;;15.77;10.93;;;14.10;99.90;;;;;;5057962;28;20044;-70
2023/08/06 03:27:08;;;;;;;16.42;11.23;;;14.10;99.90;;;;;;5063721;28;20078;-69
2023/08/06 03:29:34;;;;;;;15.48;10.68;;;14.00;99.90;;;;;;5042490;28;20567;-69
2023/08/06 03:31:59;;;;;;;16.67;10.80;;;14.00;99.90;;;;;;5038426;28;20071;-68
2023/08/06 03:34:25;;;;;;;17.98;10.80;;;14.00;99.90;;;;;;5054689;28;20064;-70
2023/08/06 03:36:50;;;;;;;16.23;11.20;;;13.90;99.90;;;;;;5062770;28;20028;-71
2023/08/06 03:39:16;;;;;;;16.73;11.13;;;14.00;99.90;;;;;;5045012;28;20479;-69
2023/08/06 03:41:42;;;;;;;16.25;11.05;;;14.00;99.90;;;;;;5051155;28;20047;-70
2023/08/06 03:44:07;;;;;;;18.63;11.63;;;13.90;99.90;;;;;;5062510;28;20402;-69
2023/08/06 03:46:33;;;;;;;15.85;11.05;;;14.00;99.90;;;;;;5042572;28;20033;-69
2023/08/06 03:49:00;;;;;;;15.45;11.07;;;14.00;99.90;;;;;;5054740;28;20127;-70
2023/08/06 03:51:25;;;;;;;15.52;10.98;;;14.00;99.90;;;;;;5037898;28;20200;-69
2023/08/06 03:53:51;;;;;;;16.25;11.35;;;14.10;99.90;;;;;;5031989;28;20511;-69
2023/08/06 03:56:17;;;;;;;17.38;11.98;;;14.10;99.90;;;;;;5044796;28;20060;-71
2023/08/06 03:58:42;;;;;;;20.15;11.90;;;14.20;99.90;;;;;;5052881;28;20049;-69
2023/08/06 04:01:08;;;;;;;17.83;11.70;;;14.10;99.90;;;;;;5062571;28;20040;-70
2023/08/06 04:03:34;;;;;;;15.35;11.18;;;14.20;99.90;;;;;;5063158;28;20178;-71
2023/08/06 04:06:00;;;;;;;19.58;12.05;;;14.20;99.90;;;;;;5038070;28;20391;-69
2023/08/06 04:08:26;;;;;;;17.00;11.45;;;14.20;99.90;;;;;;5064400;28;20047;-69
2023/08/06 04:10:52;;;;;;;16.25;11.23;;;14.20;99.90;;;;;;5064731;28;20041;-69
2023/08/06 04:13:18;;;;;;;16.80;11.55;;;14.20;99.90;;;;;;5040871;28;20051;-69
2023/08/06 04:15:44;;;;;;;17.02;11.32;;;14.20;99.90;;;;;;5067927;28;20044;-69
2023/08/06 04:18:10;;;;;;;16.60;11.57;;;14.30;99.90;;;;;;5065706;28;20040;-69
2023/08/06 04:20:43;;;;;;;14.85;11.52;;;14.20;99.90;;;;;;5047975;28;20041;-69
2023/08/06 04:23:09;;;;;;;15.60;11.00;;;14.20;99.90;;;;;;5039744;28;20478;-69
2023/08/06 04:25:34;;;;;;;17.85;11.25;;;14.30;99.90;;;;;;5056976;28;20120;-69
2023/08/06 04:28:00;;;;;;;19.00;11.55;;;14.20;99.90;;;;;;5061141;28;20044;-67
2023/08/06 04:30:25;;;;;;;22.75;11.73;;;14.20;99.90;;;;;;5045911;28;20064;-70
2023/08/06 04:32:51;;;;;;;18.13;11.40;;;14.30;99.90;;;;;;5050868;28;20079;-69
2023/08/06 04:35:16;;;;;;;16.17;11.80;;;14.30;99.90;;;;;;5046032;28;20537;-69
2023/08/06 04:37:42;;;;;;;20.08;11.35;;;14.30;99.90;;;;;;5061796;28;20048;-69
2023/08/06 04:40:08;;;;;;;15.57;11.18;;;14.40;99.90;;;;;;5062604;28;20071;-70
2023/08/06 04:42:34;;;;;;;17.60;11.07;;;14.40;99.90;;;;;;5048624;28;20494;-68
2023/08/06 04:45:01;;;;;;;20.10;11.75;;;14.50;99.90;;;;;;5040474;28;20039;-70
2023/08/06 04:47:27;;;;;;;14.68;11.32;;;14.50;99.90;;;;;;5041854;28;20125;-69
2023/08/06 04:49:53;;;;;;;18.50;11.60;;;14.50;99.90;;;;;;5040654;28;20032;-70
2023/08/06 04:52:19;;;;;;;18.45;11.80;;;14.50;99.90;;;;;;5060450;28;20482;-69
2023/08/06 04:54:44;;;;;;;17.02;12.07;;;14.50;99.90;;;;;;5030846;28;20068;-70
2023/08/06 04:57:10;;;;;;;17.77;12.07;;;14.60;99.90;;;;;;5036109;28;20041;-70
2023/08/06 04:59:36;;;;;;;17.63;12.45;;;14.60;99.90;;;;;;5036758;28;20407;-70
2023/08/06 05:02:01;;;;;;;18.95;12.40;;;14.60;99.90;;;;;;5036185;28;20029;-70
2023/08/06 05:04:28;;;;;;;17.85;12.57;;;14.60;99.90;;;;;;5043921;28;20569;-70
2023/08/06 05:06:53;;;;;;;17.58;13.02;;;14.70;99.90;;;;;;5066365;28;20051;-69
2023/08/06 05:09:19;;;;;;;23.38;13.10;;;14.80;99.90;;;;;;5062411;28;20039;-70
2023/08/06 05:11:46;;;;;;;17.40;12.88;;;14.90;99.90;;;;;;5048819;28;20148;-71
2023/08/06 05:14:12;;;;;;;19.35;12.65;;;14.90;99.90;;;;;;5034808;28;20036;-70
2023/08/06 05:16:38;;;;;;;20.20;12.70;;;15.00;99.90;;;;;;5046187;28;20118;-69
2023/08/06 05:19:03;;;;;;;18.20;12.93;;;15.10;99.90;;;;;;5030058;28;20034;-69
2023/08/06 05:21:29;;;;;;;20.48;12.57;;;15.10;99.90;;;;;;5039552;28;20477;-69
2023/08/06 05:23:54;;;;;;;17.92;12.88;;;15.20;99.90;;;;;;5034601;28;20049;-70
2023/08/06 05:26:20;;;;;;;18.60;12.00;;;15.30;99.90;;;;;;5037212;28;20053;-69
2023/08/06 05:28:46;;;;;;;16.30;12.15;;;15.40;99.90;;;;;;5033501;28;20029;-70
2023/08/06 05:31:12;;;;;;;16.35;12.35;;;15.40;99.90;;;;;;5039281;28;20486;-70
2023/08/06 05:33:37;;;;;;;15.68;11.90;;;15.40;99.90;;;;;;5037105;28;20078;-70
2023/08/06 05:36:03;;;;;;;19.23;12.20;;;15.50;99.90;;;;;;5033506;28;20843;-70
2023/08/06 05:38:29;;;;;;;16.70;12.27;;;15.60;99.90;;;;;;5038773;28;20048;-70
2023/08/06 05:40:56;;;;;;;18.17;12.50;;;15.70;99.90;;;;;;5042091;28;20033;-69
2023/08/06 05:43:24;;;;;;;20.75;13.50;;;15.70;99.90;;;;;;5033367;28;20044;-69
2023/08/06 05:45:50;;;;;;;18.15;12.90;;;15.70;99.90;;;;;;5031563;28;20049;-68
2023/08/06 05:48:16;;;;;;;19.10;13.27;;;15.80;99.90;;;;;;5033531;28;20041;-69
2023/08/06 05:50:42;;;;;;;16.98;13.15;;;15.80;99.90;;;;;;5039953;28;20753;-71
2023/08/06 05:53:07;;;;;;;17.33;12.88;;;15.80;99.90;;;;;;5035827;28;20364;-69
2023/08/06 05:55:34;;;;;;;18.33;13.38;;;15.70;99.90;;;;;;5040255;28;20043;-69
2023/08/06 05:58:00;;;;;;;19.02;13.82;;;15.70;99.90;;;;;;5038368;28;20041;-69
2023/08/06 06:00:25;;;;;;;20.45;13.60;;;15.80;99.90;;;;;;5034956;28;20037;-69
2023/08/06 06:02:51;;;;;;;21.48;14.57;;;15.70;99.90;;;;;;5046427;28;20055;-69
2023/08/06 06:05:16;;;;;;;17.52;13.88;;;15.70;99.90;;;;;;5036131;28;20047;-70
2023/08/06 06:07:42;;;;;;;19.65;14.48;;;15.70;99.90;;;;;;5029700;28;20056;-69
2023/08/06 06:10:08;;;;;;;20.67;14.95;;;15.70;99.90;;;;;;5031159;28;20056;-69
2023/08/06 06:12:34;;;;;;;21.73;15.40;;;15.70;99.90;;;;;;5040698;28;20033;-71
2023/08/06 06:15:00;;;;;;;24.27;16.02;;;15.60;99.90;;;;;;5029914;28;20083;-70
2023/08/06 06:17:26;;;;;;;20.58;15.45;;;15.70;99.90;;;;;;5027788;28;20053;-70
2023/08/06 06:19:52;;;;;;;24.80;17.30;;;15.80;99.90;;;;;;5029051;28;20057;-71
2023/08/06 06:22:18;;;;;;;33.95;17.48;;;15.80;99.90;;;;;;5039429;28;20044;-70
2023/08/06 06:24:44;;;;;;;25.65;16.80;;;15.80;99.90;;;;;;5039005;28;20441;-70
2023/08/06 06:27:09;;;;;;;23.88;17.33;;;15.90;99.90;;;;;;5034117;28;20496;-69
2023/08/06 06:29:35;;;;;;;28.63;17.48;;;15.90;99.90;;;;;;5040926;28;20054;-70
2023/08/06 06:32:00;;;;;;;27.15;18.58;;;16.00;99.90;;;;;;5043781;28;20502;-69
2023/08/06 06:34:26;;;;;;;26.38;18.20;;;16.00;99.90;;;;;;5036117;28;20163;-70
2023/08/06 06:36:52;;;;;;;25.42;18.63;;;16.00;99.90;;;;;;5052169;28;20085;-71
2023/08/06 06:39:17;;;;;;;26.73;18.70;;;16.10;99.90;;;;;;5052349;28;20048;-70
2023/08/06 06:41:44;;;;;;;31.48;18.25;;;16.10;99.90;;;;;;5038936;28;20056;-70
2023/08/06 06:44:09;;;;;;;25.73;17.77;;;16.20;99.90;;;;;;5042458;28;20041;-71
2023/08/06 06:46:35;;;;;;;25.73;18.17;;;16.30;99.90;;;;;;5061746;28;20043;-70
2023/08/06 06:49:01;;;;;;;27.90;17.42;;;16.40;99.90;;;;;;5045918;28;20048;-70
2023/08/06 06:51:26;;;;;;;28.17;18.10;;;16.60;99.90;;;;;;5032794;28;20068;-69
2023/08/06 06:53:52;;;;;;;25.05;17.13;;;16.70;99.90;;;;;;5051204;28;20038;-70
2023/08/06 06:56:17;;;;;;;24.73;16.70;;;16.80;99.90;;;;;;5059538;28;20498;-70
2023/08/06 06:58:43;;;;;;;28.27;16.27;;;16.90;99.90;;;;;;5041621;28;20049;-70
2023/08/06 07:01:11;;;;;;;24.27;16.30;;;17.00;99.90;;;;;;5042157;28;20387;-73
2023/08/06 07:03:37;;;;;;;21.83;16.10;;;17.00;99.90;;;;;;5070515;28;20517;-70
2023/08/06 07:06:03;;;;;;;22.00;15.48;;;17.10;99.90;;;;;;5046213;28;20391;-71
2023/08/06 07:08:29;;;;;;;21.88;14.88;;;17.20;99.90;;;;;;5041190;28;20135;-71
2023/08/06 07:11:05;;;;;;;20.08;14.93;;;17.20;99.90;;;;;;5045462;28;20036;-73
2023/08/06 07:13:32;;;;;;;19.88;14.93;;;17.20;99.90;;;;;;5035433;28;20034;-73
2023/08/06 07:15:57;;;;;;;18.90;13.73;;;17.30;99.90;;;;;;4997177;22;20042;-73
2023/08/06 07:18:23;;;;;;;21.77;14.85;;;17.20;99.90;;;;;;5004074;28;20050;-67
2023/08/06 07:20:53;;;;;;;19.00;14.32;;;17.20;99.90;;;;;;4982391;28;20050;-72
2023/08/06 07:23:24;;;;;;;17.05;13.85;;;17.30;99.90;;;;;;4973561;28;20049;-69
2023/08/06 07:25:50;;;;;;;19.75;13.73;;;17.30;99.90;;;;;;4972093;28;20035;-70
2023/08/06 07:28:16;;;;;;;18.45;13.73;;;17.30;99.90;;;;;;4983978;28;20496;-68
2023/08/06 07:30:43;;;;;;;18.63;13.52;;;17.40;99.90;;;;;;4985887;28;20424;-70
2023/08/06 07:33:09;;;;;;;15.85;13.48;;;17.40;99.90;;;;;;4978971;28;20808;-71
2023/08/06 07:35:35;;;;;;;16.92;13.00;;;17.50;99.90;;;;;;4977021;28;20085;-69
2023/08/06 07:38:01;;;;;;;18.35;13.20;;;17.50;99.90;;;;;;4966785;28;20138;-69
2023/08/06 07:40:28;;;;;;;16.52;12.63;;;17.50;99.90;;;;;;4973994;28;20066;-69
2023/08/06 07:42:54;;;;;;;15.65;13.15;;;17.50;99.90;;;;;;4983811;28;20050;-70
2023/08/06 07:45:19;;;;;;;15.88;12.93;;;17.40;99.90;;;;;;4985684;28;20064;-70
2023/08/06 07:47:45;;;;;;;14.70;12.30;;;17.50;99.90;;;;;;4973641;28;20116;-70
2023/08/06 07:50:11;;;;;;;14.80;12.50;;;17.40;99.90;;;;;;4972569;28;20126;-70
2023/08/06 07:52:37;;;;;;;16.50;12.63;;;17.50;99.90;;;;;;4971324;28;20055;-68
2023/08/06 07:55:04;;;;;;;16.00;12.68;;;17.50;99.90;;;;;;4949549;28;20046;-70
2023/08/06 07:57:34;;;;;;;14.75;12.30;;;17.60;99.90;;;;;;4972877;28;20481;-68
2023/08/06 08:00:00;;;;;;;15.27;12.10;;;17.60;99.90;;;;;;4974506;28;20053;-70
2023/08/06 08:02:26;;;;;;;15.30;12.45;;;17.60;99.90;;;;;;4972310;28;20047;-70
2023/08/06 08:04:52;;;;;;;17.02;12.25;;;17.80;99.90;;;;;;4976036;28;20394;-70
2023/08/06 08:07:18;;;;;;;18.88;12.13;;;17.80;99.90;;;;;;4998489;28;20489;-69
2023/08/06 08:09:44;;;;;;;14.95;11.75;;;17.90;99.90;;;;;;4971723;28;20046;-70
2023/08/06 08:12:09;;;;;;;15.07;12.45;;;18.00;99.90;;;;;;4985329;28;20053;-70
2023/08/06 08:14:36;;;;;;;18.73;12.20;;;18.00;99.90;;;;;;4987307;28;20046;-70
2023/08/06 08:17:03;;;;;;;17.52;11.77;;;18.00;99.90;;;;;;4973295;28;20069;-69
2023/08/06 08:19:29;;;;;;;16.08;12.30;;;17.90;99.90;;;;;;4970588;28;20035;-71
2023/08/06 08:21:54;;;;;;;17.25;11.52;;;17.90;99.90;;;;;;4984587;28;20042;-69
2023/08/06 08:24:23;;;;;;;14.15;11.40;;;17.90;99.90;;;;;;4983922;28;20042;-69
2023/08/06 08:26:49;;;;;;;16.63;11.23;;;18.00;99.90;;;;;;4981640;28;20061;-70
2023/08/06 08:29:15;;;;;;;14.52;12.15;;;18.00;99.90;;;;;;4979437;28;20043;-71
2023/08/06 08:31:41;;;;;;;12.52;10.73;;;18.00;99.90;;;;;;4975186;28;20386;-70
2023/08/06 08:34:06;;;;;;;14.65;11.23;;;17.90;99.90;;;;;;4990529;28;20421;-70
2023/08/06 08:36:32;;;;;;;15.73;11.80;;;18.00;99.90;;;;;;4972787;28;20860;-70
2023/08/06 08:38:58;;;;;;;14.27;11.48;;;18.10;99.90;;;;;;4970840;28;20107;-70
2023/08/06 08:41:23;;;;;;;14.30;11.43;;;18.20;99.90;;;;;;4977979;28;20034;-71
2023/08/06 08:43:53;;;;;;;14.63;11.70;;;18.30;99.90;;;;;;4979226;28;20136;-70
2023/08/06 08:46:20;;;;;;;12.32;10.88;;;18.50;99.90;;;;;;4971572;28;20081;-71
2023/08/06 08:48:46;;;;;;;12.10;10.80;;;18.60;99.90;;;;;;4974138;28;20552;-70
2023/08/06 08:51:13;;;;;;;14.95;10.30;;;18.60;99.90;;;;;;4983513;28;20085;-71
2023/08/06 08:53:39;;;;;;;13.02;11.20;;;18.80;99.90;;;;;;4988031;28;20500;-71
2023/08/06 08:56:05;;;;;;;13.57;10.70;;;18.90;99.90;;;;;;4981753;28;20485;-70
2023/08/06 08:58:36;;;;;;;11.88;10.50;;;19.00;99.90;;;;;;4987194;28;20113;-70
2023/08/06 09:01:03;;;;;;;12.25;10.63;;;19.20;99.90;;;;;;4998108;28;20050;-70
2023/08/06 09:03:29;;;;;;;12.35;10.13;;;19.20;99.90;;;;;;4997253;28;20050;-70
2023/08/06 09:05:57;;;;;;;11.52;10.05;;;19.40;99.90;;;;;;4972374;28;20078;-69
2023/08/06 09:08:32;;;;;;;11.10;9.85;;;19.50;99.90;;;;;;4968131;28;20402;-71
2023/08/06 09:10:59;;;;;;;12.43;9.55;;;19.50;99.90;;;;;;4971259;28;20443;-71
2023/08/06 09:13:25;;;;;;;10.82;9.40;;;19.60;99.90;;;;;;4971366;28;20146;-70
2023/08/06 09:15:51;;;;;;;12.73;10.13;;;19.50;99.90;;;;;;4977925;28;20462;-70
2023/08/06 09:18:26;;;;;;;11.90;10.15;;;19.60;99.90;;;;;;4980935;28;20613;-71
2023/08/06 09:20:52;;;;;;;12.75;9.75;;;19.60;99.90;;;;;;4970679;28;20567;-71
2023/08/06 09:23:18;;;;;;;10.48;9.38;;;19.70;99.90;;;;;;4968243;28;20042;-71
2023/08/06 09:25:43;;;;;;;11.18;9.60;;;19.90;99.90;;;;;;4980342;28;20081;-71
2023/08/06 09:28:09;;;;;;;10.27;9.05;;;19.80;99.90;;;;;;4983927;28;20041;-71
2023/08/06 09:30:37;;;;;;;9.57;8.32;;;19.80;99.90;;;;;;4987857;28;20046;-71
2023/08/06 09:33:03;;;;;;;9.55;8.57;;;19.80;99.90;;;;;;4982092;28;20038;-70
2023/08/06 09:35:30;;;;;;;10.82;8.55;;;19.80;99.90;;;;;;4990208;28;20046;-70
2023/08/06 09:38:06;;;;;;;10.63;9.07;;;19.90;99.90;;;;;;4975250;28;20090;-71
2023/08/06 09:40:32;;;;;;;10.50;9.40;;;19.90;99.90;;;;;;4987461;28;20034;-71
2023/08/06 09:42:59;;;;;;;10.38;8.60;;;19.90;99.90;;;;;;4968572;28;20500;-71
2023/08/06 09:45:35;;;;;;;9.60;8.13;;;19.90;99.90;;;;;;4978543;28;20042;-71
2023/08/06 09:48:08;;;;;;;11.70;8.20;;;19.90;99.90;;;;;;4973712;28;21032;-69
2023/08/06 09:50:38;;;;;;;10.02;7.22;;;19.90;99.90;;;;;;4981846;28;20105;-70
2023/08/06 09:53:05;;;;;;;8.73;7.10;;;19.90;99.90;;;;;;4986650;28;20038;-71
2023/08/06 09:55:32;;;;;;;9.77;7.55;;;20.00;99.90;;;;;;4981404;28;20520;-71
2023/08/06 09:57:59;;;;;;;9.20;7.93;;;20.10;99.90;;;;;;4983086;28;20038;-71
2023/08/06 10:00:25;;;;;;;10.85;7.53;;;20.40;99.90;;;;;;4987753;28;20044;-72
2023/08/06 10:02:55;;;;;;;10.13;8.20;;;20.50;99.90;;;;;;4976667;28;20389;-71
2023/08/06 10:05:22;;;;;;;9.73;7.77;;;20.50;99.90;;;;;;4973564;28;20046;-69
2023/08/06 10:07:50;;;;;;;9.07;7.82;;;20.60;99.90;;;;;;4982148;28;20046;-71
2023/08/06 10:10:16;;;;;;;8.63;7.18;;;20.70;99.90;;;;;;4975134;28;20054;-70
2023/08/06 10:12:50;;;;;;;10.65;7.50;;;20.80;99.90;;;;;;4972741;28;20039;-68
2023/08/06 10:15:21;;;;;;;7.93;6.68;;;20.90;99.90;;;;;;4972636;28;20117;-68
2023/08/06 10:17:49;;;;;;;7.43;6.63;;;21.00;99.90;;;;;;4979319;28;20038;-73
2023/08/06 10:20:15;;;;;;;7.10;6.05;;;21.10;99.90;;;;;;4981487;28;20130;-74
2023/08/06 10:22:45;;;;;;;9.23;6.28;;;21.10;99.90;;;;;;4979814;28;20046;-73
2023/08/06 10:25:15;;;;;;;7.25;6.38;;;21.20;99.90;;;;;;4980864;28;20133;-72
2023/08/06 10:27:54;;;;;;;7.13;6.03;;;21.20;99.90;;;;;;4982412;28;20582;-71
2023/08/06 10:30:28;;;;;;;7.15;6.18;;;21.30;99.90;;;;;;4989575;28;20109;-70
2023/08/06 10:33:04;;;;;;;6.47;5.55;;;21.20;99.90;;;;;;4990365;28;20476;-72
2023/08/06 10:35:50;;;;;;;6.65;5.95;;;21.20;99.90;;;;;;4975191;28;20046;-72
2023/08/06 10:38:16;;;;;;;7.35;5.63;;;21.20;99.90;;;;;;4977165;28;20578;-72
2023/08/06 10:40:50;;;;;;;8.48;6.50;;;21.40;99.90;;;;;;4987312;28;20046;-71
2023/08/06 10:43:29;;;;;;;7.80;6.32;;;21.50;99.90;;;;;;4984532;28;20041;-70
2023/08/06 10:45:56;;;;;;;7.93;5.90;;;21.40;99.90;;;;;;4983563;28;20120;-71
2023/08/06 10:48:31;;;;;;;8.07;6.50;;;21.30;99.90;;;;;;4976092;28;20046;-71
2023/08/06 10:50:57;;;;;;;8.15;6.22;;;21.20;99.90;;;;;;4975393;28;20053;-72
2023/08/06 10:53:22;;;;;;;7.25;5.90;;;21.00;99.90;;;;;;4969814;28;20031;-70
2023/08/06 10:55:48;;;;;;;7.30;5.88;;;21.00;99.90;;;;;;4981895;28;20496;-71
2023/08/06 10:58:16;;;;;;;6.93;5.93;;;21.10;99.90;;;;;;4984416;28;20042;-71
2023/08/06 11:00:42;;;;;;;8.73;5.75;;;21.20;99.90;;;;;;4981406;28;20058;-71
2023/08/06 11:03:08;;;;;;;7.78;5.40;;;21.40;99.90;;;;;;4972854;28;20050;-72
2023/08/06 11:05:35;;;;;;;6.82;6.07;;;21.50;99.90;;;;;;4981766;28;20122;-69
2023/08/06 11:08:01;;;;;;;7.53;6.57;;;21.60;99.90;;;;;;4982841;28;20120;-75
2023/08/06 11:10:27;;;;;;;7.53;6.30;;;21.90;99.90;;;;;;4957231;28;20048;-74
2023/08/06 11:12:52;;;;;;;8.50;6.57;;;22.20;99.90;;;;;;4981950;28;20491;-74
2023/08/06 11:15:20;;;;;;;6.90;5.43;;;22.40;99.90;;;;;;4983361;28;20507;-70
2023/08/06 11:17:47;;;;;;;6.72;5.68;;;22.60;99.90;;;;;;4978458;28;20959;-74
2023/08/06 11:20:12;;;;;;;7.65;5.88;;;22.70;99.90;;;;;;4975867;28;20053;-73
2023/08/06 11:22:38;;;;;;;6.60;5.65;;;22.70;99.90;;;;;;4979308;28;20437;-72
2023/08/06 11:25:06;;;;;;;6.15;5.25;;;22.90;99.90;;;;;;4983759;28;20050;-74
2023/08/06 11:27:31;;;;;;;6.22;5.55;;;23.10;99.90;;;;;;4980996;28;20042;-73
2023/08/06 11:29:57;;;;;;;6.63;4.80;;;22.90;99.90;;;;;;4981703;28;20045;-75
2023/08/06 11:32:23;;;;;;;7.18;4.80;;;22.60;99.90;;;;;;4970653;28;20043;-71
2023/08/06 11:34:48;;;;;;;8.25;5.70;;;22.20;99.90;;;;;;4979923;28;20853;-74
2023/08/06 11:37:14;;;;;;;6.43;4.97;;;22.00;99.90;;;;;;4978214;28;20042;-75
2023/08/06 11:39:46;;;;;;;6.05;5.43;;;21.90;99.90;;;;;;4976411;28;20141;-74
2023/08/06 11:42:12;;;;;;;7.35;5.75;;;21.90;99.90;;;;;;4974609;28;20113;-74
2023/08/06 11:44:38;;;;;;;6.45;5.03;;;21.90;99.90;;;;;;4972864;28;20501;-74
2023/08/06 11:47:14;;;;;;;6.35;5.40;;;22.00;99.90;;;;;;4971921;28;20042;-75
2023/08/06 11:49:44;;;;;;;6.70;5.70;;;22.20;99.90;;;;;;4969153;28;20428;-73
2023/08/06 11:52:22;;;;;;;7.60;6.90;;;22.30;99.90;;;;;;4972894;28;20042;-74
2023/08/06 11:54:59;;;;;;;7.55;6.68;;;22.60;99.90;;;;;;4974536;28;20042;-77
2023/08/06 11:57:25;;;;;;;7.05;6.35;;;23.00;99.90;;;;;;4971052;28;20035;-77
2023/08/06 11:59:50;;;;;;;7.18;6.47;;;23.30;99.90;;;;;;4971162;28;20819;-76
2023/08/06 12:02:16;;;;;;;11.68;6.20;;;23.40;99.90;;;;;;4972536;28;20046;-75
2023/08/06 12:05:04;;;;;;;6.55;4.03;;;23.10;99.90;;;;;;4982227;28;20073;-72
2023/08/06 12:07:31;;;;;;;3.38;2.63;;;22.80;99.90;;;;;;4965652;28;20438;-72
2023/08/06 12:09:57;;;;;;;2.97;2.47;;;22.20;99.90;;;;;;4978130;28;20042;-73
2023/08/06 12:12:24;;;;;;;4.03;2.30;;;21.60;99.90;;;;;;4985879;28;20038;-72
2023/08/06 12:14:50;;;;;;;3.08;1.95;;;21.20;99.90;;;;;;4982936;28;20313;-72
2023/08/06 12:17:15;;;;;;;4.07;2.13;;;20.80;99.90;;;;;;4970668;28;20485;-72
2023/08/06 12:19:41;;;;;;;3.78;2.00;;;20.30;99.90;;;;;;4979106;28;20077;-71
2023/08/06 12:22:07;;;;;;;2.40;2.08;;;19.90;99.90;;;;;;4984944;28;20524;-71
2023/08/06 12:24:32;;;;;;;3.88;2.60;;;19.70;99.90;;;;;;4984784;28;20038;-71
2023/08/06 12:26:58;;;;;;;5.35;2.85;;;19.40;99.90;;;;;;4962724;28;20030;-72
2023/08/06 12:29:25;;;;;;;5.38;3.30;;;19.10;99.90;;;;;;4980978;28;20061;-72
2023/08/06 12:31:51;;;;;;;4.95;3.30;;;19.00;99.90;;;;;;4980938;28;20058;-73